createdAt,value
2022-10-22T00:00:01.422Z,11.20
2022-10-22T00:02:27.892Z,11.50
2022-10-22T00:04:56.884Z,9.07
2022-10-22T00:07:23.524Z,10.73
2022-10-22T00:09:49.964Z,9.10
2022-10-22T00:12:16.619Z,11.23
2022-10-22T00:14:43.530Z,9.00
2022-10-22T00:17:11.589Z,12.43
2022-10-22T00:19:38.639Z,10.43
2022-10-22T00:22:08.441Z,10.73
2022-10-22T00:24:36.580Z,16.00
2022-10-22T00:27:03.569Z,11.30
2022-10-22T00:29:29.917Z,11.43
2022-10-22T00:34:28.019Z,12.63
2022-10-22T00:36:54.345Z,10.00
2022-10-22T00:39:23.297Z,14.23
2022-10-22T00:41:51.409Z,12.17
2022-10-22T00:44:55.064Z,10.37
2022-10-22T00:47:23.814Z,18.13
2022-10-22T00:49:52.652Z,14.20
2022-10-22T00:52:19.657Z,12.70
2022-10-22T00:54:46.016Z,10.57
2022-10-22T00:57:12.449Z,9.60
2022-10-22T00:59:39.510Z,13.63
2022-10-22T01:02:05.807Z,10.30
2022-10-22T01:04:32.124Z,16.63
2022-10-22T01:06:58.579Z,14.67
2022-10-22T01:09:34.758Z,10.63
2022-10-22T01:12:15.971Z,13.87
2022-10-22T01:15:00.521Z,13.47
2022-10-22T01:17:33.034Z,13.57
2022-10-22T01:20:21.181Z,8.60
2022-10-22T01:22:59.545Z,13.10
2022-10-22T01:25:36.942Z,11.00
2022-10-22T01:28:12.764Z,11.13
2022-10-22T01:30:40.550Z,10.80
2022-10-22T01:33:10.257Z,12.47
2022-10-22T01:35:43.804Z,8.40
2022-10-22T01:38:15.900Z,13.10
2022-10-22T01:40:43.048Z,15.30
2022-10-22T01:43:11.029Z,12.77
2022-10-22T01:45:44.648Z,11.60
2022-10-22T01:48:42.305Z,17.67
2022-10-22T01:51:24.367Z,12.23
2022-10-22T01:53:58.497Z,9.63
2022-10-22T01:56:36.157Z,15.43
2022-10-22T01:59:17.252Z,8.90
2022-10-22T02:02:01.865Z,15.63
2022-10-22T02:04:48.872Z,11.73
2022-10-22T02:07:19.856Z,14.50
2022-10-22T02:09:47.565Z,11.07
2022-10-22T02:12:14.687Z,8.93
2022-10-22T02:14:43.874Z,11.73
2022-10-22T02:17:16.264Z,11.57
2022-10-22T02:19:57.913Z,11.00
2022-10-22T02:22:26.275Z,11.10
2022-10-22T02:24:53.256Z,10.70
2022-10-22T02:27:38.345Z,12.90
2022-10-22T02:30:08.425Z,9.87
2022-10-22T02:33:00.298Z,13.00
2022-10-22T02:35:28.861Z,9.97
2022-10-22T02:37:56.928Z,15.73
2022-10-22T02:40:24.024Z,12.93
2022-10-22T02:42:51.319Z,11.47
2022-10-22T02:45:19.494Z,12.53
2022-10-22T02:47:46.308Z,10.37
2022-10-22T02:50:13.264Z,9.67
2022-10-22T02:52:40.094Z,14.50
2022-10-22T02:55:07.349Z,16.53
2022-10-22T02:57:34.011Z,17.83
2022-10-22T03:00:00.351Z,14.80
2022-10-22T03:02:26.759Z,12.80
2022-10-22T03:04:53.116Z,14.53
2022-10-22T03:07:19.465Z,11.33
2022-10-22T03:09:46.448Z,8.60
2022-10-22T03:12:12.921Z,14.23
2022-10-22T03:14:39.294Z,16.03
2022-10-22T03:17:05.648Z,13.20
2022-10-22T03:19:32.163Z,16.27
2022-10-22T03:22:10.489Z,9.50
2022-10-22T03:24:46.021Z,14.37
2022-10-22T03:27:16.551Z,11.23
2022-10-22T03:29:43.365Z,16.80
2022-10-22T03:32:09.733Z,17.07
2022-10-22T03:34:36.131Z,11.30
2022-10-22T03:37:02.673Z,17.23
2022-10-22T03:39:32.067Z,10.10
2022-10-22T03:41:58.686Z,11.43
2022-10-22T03:44:25.810Z,15.30
2022-10-22T03:46:52.938Z,14.60
2022-10-22T03:49:19.307Z,17.50
2022-10-22T03:51:45.638Z,9.20
2022-10-22T03:54:12.003Z,11.07
2022-10-22T03:56:38.536Z,13.63
2022-10-22T03:59:04.974Z,11.63
2022-10-22T04:01:31.595Z,16.57
2022-10-22T04:03:58.376Z,11.00
2022-10-22T04:06:25.468Z,11.50
2022-10-22T04:08:51.854Z,11.63
2022-10-22T04:11:18.277Z,15.83
2022-10-22T04:13:44.980Z,15.97
2022-10-22T04:16:15.697Z,15.90
2022-10-22T04:18:42.997Z,10.90
2022-10-22T04:21:11.030Z,16.43
2022-10-22T04:23:37.889Z,11.87
2022-10-22T04:26:07.413Z,16.20
2022-10-22T04:28:35.021Z,15.43
2022-10-22T04:31:06.809Z,14.37
2022-10-22T04:33:33.108Z,10.53
2022-10-22T04:35:59.422Z,15.50
2022-10-22T04:38:25.745Z,16.60
2022-10-22T04:40:52.021Z,15.70
2022-10-22T04:43:18.345Z,13.73
2022-10-22T04:45:44.669Z,16.73
2022-10-22T04:48:11.023Z,18.40
2022-10-22T04:50:37.334Z,10.57
2022-10-22T04:53:03.638Z,14.93
2022-10-22T04:57:57.190Z,11.57
2022-10-22T05:00:23.513Z,11.20
2022-10-22T05:02:50.800Z,13.40
2022-10-22T05:05:17.296Z,14.97
2022-10-22T05:07:43.837Z,11.30
2022-10-22T05:10:10.257Z,9.70
2022-10-22T05:12:36.655Z,11.87
2022-10-22T05:15:02.998Z,13.83
2022-10-22T05:17:29.298Z,14.93
2022-10-22T05:19:55.627Z,13.30
2022-10-22T05:22:21.905Z,20.33
2022-10-22T05:24:49.064Z,13.00
2022-10-22T05:27:15.361Z,19.30
2022-10-22T05:29:41.744Z,13.20
2022-10-22T05:32:08.114Z,15.07
2022-10-22T05:34:36.040Z,9.63
2022-10-22T05:37:02.375Z,13.70
2022-10-22T05:39:28.790Z,13.27
2022-10-22T05:41:55.089Z,11.07
2022-10-22T05:44:21.369Z,12.57
2022-10-22T05:46:47.779Z,14.43
2022-10-22T05:49:15.343Z,11.00
2022-10-22T05:51:41.804Z,14.33
2022-10-22T05:54:08.520Z,15.57
2022-10-22T05:56:36.934Z,14.87
2022-10-22T06:01:35.500Z,12.53
2022-10-22T06:04:04.589Z,15.63
2022-10-22T06:06:36.837Z,13.27
2022-10-22T06:09:24.795Z,16.07
2022-10-22T06:11:51.620Z,13.03
2022-10-22T06:14:19.613Z,11.40
2022-10-22T06:16:46.285Z,15.53
2022-10-22T06:19:15.154Z,15.60
2022-10-22T06:21:41.623Z,18.10
2022-10-22T06:24:10.284Z,19.03
2022-10-22T06:26:37.109Z,18.57
2022-10-22T06:29:03.758Z,11.27
2022-10-22T06:31:36.477Z,18.43
2022-10-22T06:34:08.266Z,25.03
2022-10-22T06:36:35.127Z,17.70
2022-10-22T06:39:02.001Z,18.13
2022-10-22T06:41:28.950Z,15.80
2022-10-22T06:43:57.217Z,14.87
2022-10-22T06:46:25.035Z,15.87
2022-10-22T06:49:02.899Z,22.40
2022-10-22T06:51:29.466Z,14.50
2022-10-22T06:53:57.408Z,15.30
2022-10-22T06:56:25.665Z,15.43
2022-10-22T06:58:53.965Z,15.53
2022-10-22T07:01:23.166Z,13.37
2022-10-22T07:03:53.330Z,29.43
2022-10-22T07:06:21.569Z,14.90
2022-10-22T07:08:48.107Z,17.77
2022-10-22T07:11:17.754Z,14.30
2022-10-22T07:13:44.562Z,11.63
2022-10-22T07:16:11.091Z,14.43
2022-10-22T07:18:39.328Z,11.80
2022-10-22T07:21:06.956Z,12.73
2022-10-22T07:23:33.529Z,14.00
2022-10-22T07:26:02.318Z,10.80
2022-10-22T07:28:30.100Z,15.73
2022-10-22T07:30:56.464Z,12.47
2022-10-22T07:33:22.778Z,14.60
2022-10-22T07:35:49.063Z,17.90
2022-10-22T07:38:15.427Z,13.07
2022-10-22T07:40:41.859Z,13.47
2022-10-22T07:43:08.241Z,11.73
2022-10-22T07:45:34.576Z,14.33
2022-10-22T07:48:01.730Z,18.30
2022-10-22T07:50:28.184Z,17.83
2022-10-22T07:52:56.132Z,12.33
2022-10-22T07:55:24.658Z,12.53
2022-10-22T07:57:51.040Z,12.50
2022-10-22T08:00:20.452Z,16.40
2022-10-22T08:02:49.541Z,15.03
2022-10-22T08:05:16.424Z,12.13
2022-10-22T08:07:43.478Z,16.57
2022-10-22T08:10:11.673Z,17.57
2022-10-22T08:12:38.656Z,17.13
2022-10-22T08:15:06.281Z,11.83
2022-10-22T08:17:32.814Z,9.67
2022-10-22T08:20:00.364Z,15.00
2022-10-22T08:22:26.689Z,13.50
2022-10-22T08:24:53.445Z,13.20
2022-10-22T08:27:20.446Z,13.23
2022-10-22T08:29:46.829Z,13.20
2022-10-22T08:32:13.445Z,11.70
2022-10-22T08:34:39.960Z,14.87
2022-10-22T08:37:08.367Z,10.40
2022-10-22T08:39:37.332Z,9.57
2022-10-22T08:42:30.283Z,11.40
2022-10-22T08:45:08.925Z,11.13
2022-10-22T08:47:56.037Z,11.80
2022-10-22T08:50:31.229Z,10.03
2022-10-22T08:53:03.531Z,17.13
2022-10-22T08:55:35.117Z,13.70
2022-10-22T08:58:21.727Z,13.83
2022-10-22T09:00:58.601Z,9.27
2022-10-22T09:03:42.634Z,9.90
2022-10-22T09:06:16.134Z,11.93
2022-10-22T09:08:44.883Z,11.53
2022-10-22T09:11:11.211Z,9.30
2022-10-22T09:13:37.659Z,12.50
2022-10-22T09:16:27.115Z,11.50
2022-10-22T09:19:12.092Z,8.20
2022-10-22T09:22:04.809Z,8.47
2022-10-22T09:24:38.953Z,13.63
2022-10-22T09:27:14.510Z,8.30
2022-10-22T09:29:41.727Z,11.33
2022-10-22T09:32:08.071Z,10.07
2022-10-22T09:34:34.445Z,11.60
2022-10-22T09:37:07.233Z,10.93
2022-10-22T09:39:39.398Z,10.80
2022-10-22T09:42:07.561Z,11.90
2022-10-22T09:44:36.034Z,11.57
2022-10-22T09:47:07.653Z,12.23
2022-10-22T09:49:36.927Z,9.47
2022-10-22T09:52:22.559Z,9.40
2022-10-22T09:54:52.412Z,7.57
2022-10-22T09:57:22.331Z,11.10
2022-10-22T09:59:51.316Z,6.57
2022-10-22T10:02:38.169Z,11.70
2022-10-22T10:05:16.431Z,5.20
2022-10-22T10:07:42.978Z,9.33
2022-10-22T10:10:21.356Z,8.57
2022-10-22T10:13:09.258Z,5.30
2022-10-22T10:15:44.137Z,8.50
2022-10-22T10:18:49.098Z,12.00
2022-10-22T10:21:47.393Z,8.23
2022-10-22T10:24:27.181Z,8.70
2022-10-22T10:27:07.231Z,11.30
2022-10-22T10:29:39.587Z,4.43
2022-10-22T10:32:27.302Z,5.30
2022-10-22T10:35:15.457Z,9.33
2022-10-22T10:37:48.466Z,9.60
2022-10-22T10:40:26.821Z,7.20
2022-10-22T10:43:00.154Z,5.57
2022-10-22T10:45:33.497Z,10.40
2022-10-22T10:47:59.741Z,8.17
2022-10-22T10:50:31.382Z,8.20
2022-10-22T10:53:10.116Z,11.53
2022-10-22T10:55:58.259Z,7.43
2022-10-22T10:59:01.597Z,7.57
2022-10-22T11:01:37.326Z,11.90
2022-10-22T11:04:50.989Z,9.63
2022-10-22T11:07:34.158Z,8.10
2022-10-22T11:10:09.990Z,9.83
2022-10-22T11:12:42.444Z,7.80
2022-10-22T11:15:14.500Z,7.20
2022-10-22T11:17:45.533Z,6.03
2022-10-22T11:20:28.279Z,8.20
2022-10-22T11:23:21.215Z,5.63
2022-10-22T11:25:49.848Z,3.60
2022-10-22T11:28:40.205Z,5.77
2022-10-22T11:31:15.672Z,3.70
2022-10-22T11:34:32.543Z,7.40
2022-10-22T11:37:00.065Z,5.70
2022-10-22T11:39:30.981Z,11.27
2022-10-22T11:42:05.267Z,5.93
2022-10-22T11:44:32.843Z,9.37
2022-10-22T11:47:15.514Z,7.10
2022-10-22T11:49:55.456Z,7.37
2022-10-22T11:52:23.520Z,8.43
2022-10-22T11:54:53.948Z,6.07
2022-10-22T11:57:49.422Z,8.00
2022-10-22T12:00:45.949Z,5.37
2022-10-22T12:03:40.834Z,5.50
2022-10-22T12:06:11.804Z,12.67
2022-10-22T12:08:43.872Z,7.03
2022-10-22T12:11:10.188Z,5.13
2022-10-22T12:13:58.500Z,4.73
2022-10-22T12:16:37.700Z,7.83
2022-10-22T12:19:26.372Z,6.43
2022-10-22T12:21:55.847Z,7.03
2022-10-22T12:24:24.888Z,3.90
2022-10-22T12:26:52.577Z,4.50
2022-10-22T12:29:23.607Z,7.27
2022-10-22T12:31:50.130Z,5.33
2022-10-22T12:34:24.099Z,4.50
2022-10-22T12:36:52.518Z,5.73
2022-10-22T12:39:26.512Z,3.13
2022-10-22T12:41:54.613Z,4.77
2022-10-22T12:44:20.953Z,7.30
2022-10-22T12:46:51.785Z,4.03
2022-10-22T12:49:24.802Z,3.60
2022-10-22T12:51:51.138Z,8.27
2022-10-22T12:54:27.451Z,5.80
2022-10-22T12:56:56.181Z,2.67
2022-10-22T12:59:26.701Z,2.97
2022-10-22T13:01:54.726Z,6.60
2022-10-22T13:04:28.279Z,2.77
2022-10-22T13:07:11.813Z,4.83
2022-10-22T13:09:44.241Z,3.43
2022-10-22T13:12:16.181Z,4.23
2022-10-22T13:14:45.086Z,5.07
2022-10-22T13:17:16.138Z,3.20
2022-10-22T13:19:47.113Z,2.90
2022-10-22T13:22:33.775Z,2.93
2022-10-22T13:25:04.833Z,3.20
2022-10-22T13:27:31.696Z,7.60
2022-10-22T13:30:02.809Z,5.33
2022-10-22T13:32:34.003Z,2.50
2022-10-22T13:35:01.917Z,3.43
2022-10-22T13:37:31.113Z,7.90
2022-10-22T13:39:57.624Z,3.40
2022-10-22T13:42:24.524Z,2.50
2022-10-22T13:44:51.053Z,3.97
2022-10-22T13:47:28.784Z,5.43
2022-10-22T13:49:58.492Z,3.60
2022-10-22T13:52:30.109Z,5.53
2022-10-22T13:54:56.457Z,4.97
2022-10-22T13:57:22.868Z,3.33
2022-10-22T13:59:49.294Z,4.83
2022-10-22T14:02:16.485Z,5.20
2022-10-22T14:04:43.586Z,6.83
2022-10-22T14:07:17.043Z,6.83
2022-10-22T14:09:43.757Z,2.93
2022-10-22T14:12:12.265Z,4.77
2022-10-22T14:14:38.612Z,5.17
2022-10-22T14:17:05.836Z,3.33
2022-10-22T14:19:32.409Z,7.90
2022-10-22T14:21:58.758Z,4.13
2022-10-22T14:24:25.082Z,4.57
2022-10-22T14:26:51.408Z,6.77
2022-10-22T14:29:17.746Z,4.07
2022-10-22T14:31:44.821Z,5.67
2022-10-22T14:34:13.447Z,5.40
2022-10-22T14:36:39.822Z,3.83
2022-10-22T14:39:06.170Z,5.67
2022-10-22T14:41:32.531Z,2.87
2022-10-22T14:43:59.665Z,5.70
2022-10-22T14:46:26.022Z,4.07
2022-10-22T14:48:52.368Z,3.90
2022-10-22T14:51:20.908Z,5.23
2022-10-22T14:53:48.385Z,5.07
2022-10-22T14:56:17.988Z,3.57
2022-10-22T14:58:45.441Z,4.20
2022-10-22T15:01:12.096Z,3.20
2022-10-22T15:03:38.526Z,3.50
2022-10-22T15:06:05.401Z,5.10
2022-10-22T15:08:31.764Z,5.57
2022-10-22T15:11:03.532Z,4.83
2022-10-22T15:13:30.284Z,4.47
2022-10-22T15:15:58.108Z,3.37
2022-10-22T15:18:25.509Z,5.30
2022-10-22T15:20:59.464Z,6.17
2022-10-22T15:23:26.586Z,3.63
2022-10-22T15:25:53.526Z,4.47
2022-10-22T15:28:20.015Z,2.93
2022-10-22T15:30:52.974Z,12.70
2022-10-22T15:33:19.290Z,4.83
2022-10-22T15:35:45.604Z,5.10
2022-10-22T15:38:11.889Z,6.87
2022-10-22T15:40:38.209Z,4.00
2022-10-22T15:43:04.492Z,3.23
2022-10-22T15:45:30.765Z,8.67
2022-10-22T15:47:57.088Z,4.30
2022-10-22T15:50:23.414Z,4.53
2022-10-22T15:52:49.753Z,4.30
2022-10-22T15:55:16.162Z,3.17
2022-10-22T15:57:42.673Z,7.07
2022-10-22T16:00:09.871Z,7.67
2022-10-22T16:02:36.155Z,4.87
2022-10-22T16:05:02.472Z,7.00
2022-10-22T16:07:29.538Z,4.00
2022-10-22T16:10:00.273Z,9.47
2022-10-22T16:12:26.598Z,6.87
2022-10-22T16:14:52.962Z,4.03
2022-10-22T16:17:19.268Z,5.10
2022-10-22T16:19:47.162Z,7.80
2022-10-22T16:22:15.464Z,3.87
2022-10-22T16:24:41.980Z,3.87
2022-10-22T16:27:09.369Z,3.90
2022-10-22T16:29:37.771Z,4.67
2022-10-22T16:32:04.250Z,9.77
2022-10-22T16:34:30.544Z,7.57
2022-10-22T16:36:57.008Z,9.77
2022-10-22T16:39:23.847Z,9.50
2022-10-22T16:41:50.149Z,16.70
2022-10-22T16:44:16.423Z,8.77
2022-10-22T16:46:42.768Z,5.03
2022-10-22T16:49:09.094Z,8.80
2022-10-22T16:51:35.921Z,13.70
2022-10-22T16:54:03.732Z,8.20
2022-10-22T16:56:32.100Z,7.73
2022-10-22T16:58:58.496Z,10.60
2022-10-22T17:01:28.904Z,6.17
2022-10-22T17:03:55.961Z,6.23
2022-10-22T17:06:24.350Z,9.83
2022-10-22T17:08:51.008Z,4.97
2022-10-22T17:11:20.509Z,6.47
2022-10-22T17:13:49.193Z,6.40
2022-10-22T17:16:18.215Z,6.80
2022-10-22T17:21:18.584Z,7.23
2022-10-22T17:23:45.589Z,10.83
2022-10-22T17:26:17.700Z,11.93
2022-10-22T17:28:44.366Z,11.30
2022-10-22T17:31:21.044Z,19.00
2022-10-22T17:33:48.832Z,5.70
2022-10-22T17:36:16.834Z,6.07
2022-10-22T17:38:45.282Z,10.03
2022-10-22T17:41:17.634Z,12.23
2022-10-22T17:46:21.319Z,7.70
2022-10-22T17:48:51.782Z,7.03
2022-10-22T17:51:19.249Z,9.03
2022-10-22T17:53:46.041Z,10.63
2022-10-22T17:56:15.784Z,5.83
2022-10-22T17:58:42.098Z,9.40
2022-10-22T18:01:20.076Z,9.50
2022-10-22T18:03:46.506Z,10.97
2022-10-22T18:06:13.253Z,5.87
2022-10-22T18:08:40.012Z,6.73
2022-10-22T18:11:08.370Z,10.80
2022-10-22T18:13:34.855Z,5.50
2022-10-22T18:16:01.605Z,7.63
2022-10-22T18:18:28.309Z,9.30
2022-10-22T18:20:54.737Z,5.00
2022-10-22T18:23:21.099Z,5.83
2022-10-22T18:25:48.564Z,9.83
2022-10-22T18:28:16.896Z,8.00
2022-10-22T18:30:44.920Z,5.13
2022-10-22T18:33:17.943Z,13.93
2022-10-22T18:35:46.086Z,11.47
2022-10-22T18:38:12.421Z,8.50
2022-10-22T18:40:45.992Z,9.40
2022-10-22T18:43:12.581Z,7.57
2022-10-22T18:45:46.425Z,5.20
2022-10-22T18:48:14.409Z,5.10
2022-10-22T18:50:40.720Z,7.80
2022-10-22T18:53:07.063Z,13.50
2022-10-22T18:55:33.841Z,8.53
2022-10-22T18:58:00.221Z,8.03
2022-10-22T19:00:26.589Z,8.43
2022-10-22T19:02:56.044Z,11.10
2022-10-22T19:05:22.400Z,9.40
2022-10-22T19:07:50.242Z,9.87
2022-10-22T19:10:17.876Z,10.93
2022-10-22T19:12:44.181Z,6.23
2022-10-22T19:15:11.020Z,9.53
2022-10-22T19:17:37.394Z,8.03
2022-10-22T19:20:04.168Z,7.93
2022-10-22T19:22:31.183Z,9.57
2022-10-22T19:24:58.835Z,5.87
2022-10-22T19:27:25.511Z,7.03
2022-10-22T19:29:51.844Z,8.77
2022-10-22T19:32:19.883Z,12.50
2022-10-22T19:34:46.732Z,11.53
2022-10-22T19:37:13.062Z,10.67
2022-10-22T19:39:39.347Z,17.07
2022-10-22T19:42:05.689Z,7.60
2022-10-22T19:44:32.012Z,11.90
2022-10-22T19:46:58.401Z,8.93
2022-10-22T19:49:24.780Z,10.67
2022-10-22T19:51:51.110Z,8.40
2022-10-22T19:54:20.924Z,8.20
2022-10-22T19:56:48.098Z,12.77
2022-10-22T19:59:15.762Z,10.30
2022-10-22T20:01:42.510Z,11.73
2022-10-22T20:04:15.184Z,9.47
2022-10-22T20:06:41.776Z,11.13
2022-10-22T20:09:08.186Z,8.47
2022-10-22T20:11:34.505Z,12.47
2022-10-22T20:14:00.858Z,7.70
2022-10-22T20:16:29.729Z,7.40
2022-10-22T20:19:01.176Z,9.23
2022-10-22T20:21:27.821Z,8.30
2022-10-22T20:23:56.339Z,7.30
2022-10-22T20:26:27.431Z,7.00
2022-10-22T20:28:55.279Z,9.70
2022-10-22T20:31:23.911Z,12.40
2022-10-22T20:33:50.959Z,9.00
2022-10-22T20:36:20.685Z,10.03
2022-10-22T20:38:48.169Z,13.57
2022-10-22T20:41:20.620Z,10.00
2022-10-22T20:43:49.262Z,10.00
2022-10-22T20:46:22.889Z,8.93
2022-10-22T20:48:51.907Z,7.80
2022-10-22T20:51:18.380Z,11.00
2022-10-22T20:53:44.797Z,12.97
2022-10-22T20:56:11.713Z,7.97
2022-10-22T20:58:38.041Z,8.87
2022-10-22T21:01:10.201Z,11.37
2022-10-22T21:03:37.352Z,8.40
2022-10-22T21:06:06.907Z,10.87
2022-10-22T21:08:33.270Z,10.60
2022-10-22T21:10:59.601Z,17.00
2022-10-22T21:13:25.891Z,11.63
2022-10-22T21:15:52.204Z,14.03
2022-10-22T21:18:18.528Z,9.87
2022-10-22T21:20:44.897Z,8.83
2022-10-22T21:23:11.242Z,7.67
2022-10-22T21:25:40.866Z,12.17
2022-10-22T21:28:09.744Z,7.30
2022-10-22T21:30:36.024Z,6.63
2022-10-22T21:33:02.315Z,15.40
2022-10-22T21:35:28.770Z,9.67
2022-10-22T21:37:55.102Z,8.40
2022-10-22T21:40:21.818Z,15.20
2022-10-22T21:42:49.786Z,7.27
2022-10-22T21:45:18.717Z,10.00
2022-10-22T21:47:47.852Z,14.10
2022-10-22T21:50:14.391Z,8.77
2022-10-22T21:52:40.704Z,9.20
2022-10-22T21:55:07.422Z,13.90
2022-10-22T21:57:33.734Z,6.50
2022-10-22T22:00:00.153Z,12.87
2022-10-22T22:02:28.515Z,12.03
2022-10-22T22:04:54.955Z,11.37
2022-10-22T22:07:22.111Z,10.10
2022-10-22T22:09:51.594Z,11.70
2022-10-22T22:12:20.527Z,14.90
2022-10-22T22:14:47.247Z,7.60
2022-10-22T22:17:15.381Z,8.40
2022-10-22T22:19:42.359Z,9.13
2022-10-22T22:22:08.721Z,8.00
2022-10-22T22:24:35.098Z,11.30
2022-10-22T22:27:01.455Z,11.83
2022-10-22T22:29:27.739Z,10.80
2022-10-22T22:31:54.210Z,14.97
2022-10-22T22:34:20.561Z,18.43
2022-10-22T22:36:48.231Z,7.93
2022-10-22T22:39:19.941Z,9.20
2022-10-22T22:41:46.965Z,9.13
2022-10-22T22:44:14.116Z,10.73
2022-10-22T22:46:40.645Z,11.03
2022-10-22T22:49:07.629Z,10.23
2022-10-22T22:51:34.389Z,8.77
2022-10-22T22:54:01.158Z,10.27
2022-10-22T22:56:30.536Z,11.37
2022-10-22T22:58:57.502Z,7.00
2022-10-22T23:01:35.453Z,10.13
2022-10-22T23:04:09.927Z,15.20
2022-10-22T23:06:37.640Z,11.37
2022-10-22T23:09:06.082Z,13.70
2022-10-22T23:11:32.827Z,10.67
2022-10-22T23:14:01.407Z,6.00
2022-10-22T23:16:31.195Z,11.57
2022-10-22T23:18:58.719Z,6.93
2022-10-22T23:21:30.647Z,15.10
2022-10-22T23:23:59.457Z,9.70
2022-10-22T23:26:28.997Z,8.60
2022-10-22T23:28:59.222Z,12.80
2022-10-22T23:31:26.647Z,13.17
2022-10-22T23:33:53.028Z,9.63
2022-10-22T23:36:19.405Z,12.93
2022-10-22T23:38:45.841Z,11.20
2022-10-22T23:41:12.143Z,6.87
2022-10-22T23:43:38.554Z,9.37
2022-10-22T23:46:06.828Z,10.20
2022-10-22T23:48:33.967Z,9.43
2022-10-22T23:51:14.023Z,10.57
2022-10-22T23:53:41.278Z,6.47
2022-10-22T23:56:17.956Z,7.57
2022-10-22T23:58:45.129Z,9.73
